Galena, Nevada Weather observations

Data are for 60 minute period ending nearest time listed.
 Day   Time    Ave.   Ave.  Ave.  Vector   Max.   Total    Solar   
  of    of     Air    Rel.  Wind   Wind    Wind  Precip.   Rad.    
Year   Day     Temp.  Hum.  Speed  Dir.    Gust                    
2026   (PST)    F      %     mph   deg.    mph     in.     W/m2    
------------------------------------------------------------------- 
 244   19:00   58.0    25   10.0   209     27.0    2.02      10  
 244   20:00   57.0    27    9.0   177     24.0    2.02       0  
 244   21:00   55.0    33   10.0   137     27.0    2.02       0  
 244   22:00   54.0    35    9.0   164     17.0    2.02       0  
 244   23:00   52.0    38    7.0   154     18.0    2.02       0  
 245    0:00   52.0    31   13.0   218     28.0    2.02       0  
 245    1:00   51.0    36    6.0   223     21.0    2.02       0  
 245    2:00   49.0    40    6.0    28     22.0    2.02       0  
 245    3:00   50.0    45    5.0    47     14.0    2.02       0  
 245    4:00   50.0    47   14.0   158     21.0    2.02       0  
 245    5:00   50.0    47   11.0   155     24.0    2.02       0  
 245    6:00   51.0    46   10.0   172     21.0    2.02       5  
 245    7:00   51.0    48   13.0   174     25.0    2.02      39  
 245    8:00   52.0    46   11.0   180     28.0    2.02      57  
 245    9:00   53.0    48    8.0   192     25.0    2.02      74  
 245   10:00   54.0    45   11.0   195     26.0    2.02     138  
 245   11:00   57.0    40   13.0   193     28.0    2.02     210  
 245   12:00   59.0    35   15.0   187     30.0    2.02     299  
 245   13:00   62.0    30   16.0   196     31.0    2.02     459  
 245   14:00   65.0    26   15.0   180     30.0    2.02     985  
 245   15:00   66.0    25   16.0   170     32.0    2.02     829  
 245   16:00   65.0    26   13.0   183     31.0    2.02     733  
 245   17:00   63.0    28   11.0   192     26.0    2.02     473  
 245   18:00   58.0    36   12.0   192     22.0    2.02     136  

Return to Galena, Nevada graphs page.


Western Regional Climate Center,wrcc@dri.edu